»·PEaware :: N364KQ KBFL-L52

N364KQ :: KBFL-L52

FLIGHT INFORMATION

Flight Status: Arrived
Operator: Privately registered:
United States
More flights under this callsign
Pilot: Brian K. (18535)
Aircraft: CESSNA 172 SKYHAWK
(C172)
More flights by this aircraft type
Origin: KBFL Meadows
United States
Destination: L52 Oceano Co
United States
More flights between these airports :: More routes between these airports
Route: +
File this flight plan on PilotEdge
Remarks:
Altitude:
(Current/Filed)
6,500ft
Speed:
(Current/Filed)
0kts
Departed: 07-Oct-18 12:16 PM
Arrived: 07-Oct-18 01:01 PM
Distance/Time
Traveled:
79nm/0:45
Distance/Time
To Go:
Arrived

Flight Plot

Page will automatically refresh every two minutes.

Flight plan parsing failed; only flown route is shown


Map Options




Map Legend


Flown Route
Filed Route
Departure Airport
Arrival Airport
Navaid (VOR, NDB)
Fix

Horizontal Profiles

Position Reports

Time Latitude Longitude Heading Altitude Ground
Speed
07-Oct-18 12:17 35.409258 -119.193731 267 3759ft 97kts
07-Oct-18 12:18 35.400850 -119.225498 256 4258ft 100kts
07-Oct-18 12:19 35.393859 -119.257639 257 4696ft 101kts
07-Oct-18 12:20 35.385865 -119.289531 260 5108ft 101kts
07-Oct-18 12:21 35.379050 -119.321466 261 5504ft 101kts
07-Oct-18 12:22 35.372347 -119.355176 259 5883ft 103kts
07-Oct-18 12:23 35.365308 -119.389178 264 6216ft 104kts
07-Oct-18 12:24 35.358419 -119.422605 261 6480ft 107kts
07-Oct-18 12:25 35.351505 -119.458358 264 6618ft 110kts
07-Oct-18 12:26 35.344746 -119.495895 264 6615ft 116kts
07-Oct-18 12:27 35.338908 -119.532766 267 6536ft 114kts
07-Oct-18 12:28 35.331472 -119.570016 257 6489ft 113kts
07-Oct-18 12:29 35.321621 -119.605802 259 6464ft 109kts
07-Oct-18 12:30 35.313455 -119.638610 258 6461ft 107kts
07-Oct-18 12:31 35.305174 -119.671102 261 6511ft 101kts
07-Oct-18 12:32 35.297933 -119.704044 259 6554ft 101kts
07-Oct-18 12:33 35.290915 -119.734499 261 6599ft 101kts
07-Oct-18 12:34 35.284523 -119.768157 259 6586ft 102kts
07-Oct-18 12:35 35.277033 -119.801870 260 6555ft 103kts
07-Oct-18 12:36 35.270365 -119.834504 261 6534ft 103kts
07-Oct-18 12:37 35.263167 -119.868447 260 6509ft 104kts
07-Oct-18 12:38 35.255332 -119.901013 260 6484ft 105kts
07-Oct-18 12:39 35.247864 -119.935421 261 6454ft 106kts
07-Oct-18 12:40 35.240527 -119.969821 261 6438ft 106kts
07-Oct-18 12:41 35.232686 -120.002682 261 6427ft 107kts
07-Oct-18 12:42 35.225481 -120.037220 266 6439ft 105kts
07-Oct-18 12:43 35.220510 -120.071540 266 6452ft 105kts
07-Oct-18 12:44 35.213707 -120.106277 262 6464ft 106kts
07-Oct-18 12:45 35.207018 -120.141061 264 6474ft 105kts
07-Oct-18 12:46 35.199565 -120.174921 262 6483ft 106kts
07-Oct-18 12:47 35.191838 -120.209676 263 6495ft 106kts
07-Oct-18 12:48 35.185186 -120.241497 263 6198ft 108kts
07-Oct-18 12:49 35.177748 -120.276643 261 5793ft 106kts
07-Oct-18 12:50 35.171338 -120.305345 262 5448ft 105kts
07-Oct-18 12:51 35.162538 -120.345105 258 4716ft 105kts
07-Oct-18 12:52 35.155437 -120.377054 253 4196ft 100kts
07-Oct-18 12:53 35.142224 -120.406811 243 3647ft 100kts
07-Oct-18 12:54 35.127818 -120.436013 243 3033ft 101kts
07-Oct-18 12:55 35.115234 -120.459079 239 2548ft 95kts
07-Oct-18 12:56 35.099410 -120.490936 237 1855ft 94kts
07-Oct-18 12:57 35.085040 -120.510165 231 1551ft 91kts
07-Oct-18 12:58 35.069879 -120.528375 228 1412ft 86kts
07-Oct-18 12:59 35.065827 -120.553129 301 1179ft 76kts
07-Oct-18 13:00 35.075759 -120.572551 298 910ft 65kts
07-Oct-18 13:01 35.085081 -120.591051 301 682ft 59kts
07-Oct-18 13:02 35.093520 -120.607095 299 303ft 56kts
07-Oct-18 13:03 35.101304 -120.621942 300 18ft 33kts
07-Oct-18 13:04 35.102893 -120.623978 315 18ft 1kts
07-Oct-18 13:05 35.103275 -120.624327 35 18ft 0kts
07-Oct-18 13:06 35.103258 -120.624341 38 18ft 2kts
07-Oct-18 13:07 35.103282 -120.624312 35 18ft 0kts

Navigation Log

Ident Type
Flight plan parsing failed, navigation log unavailable